sensor_id;sensor_type;location;lat;lon;timestamp;temperature;humidity
54178;DHT22;40085;53.004;6.770;2023-10-13T00:01:58;14.80;99.90
54178;DHT22;40085;53.004;6.770;2023-10-13T00:04:31;14.90;99.90
54178;DHT22;40085;53.004;6.770;2023-10-13T00:07:01;14.90;99.90
54178;DHT22;40085;53.004;6.770;2023-10-13T00:09:28;14.90;99.90
54178;DHT22;40085;53.004;6.770;2023-10-13T00:12:05;15.00;99.90
54178;DHT22;40085;53.004;6.770;2023-10-13T00:14:35;15.20;99.90
54178;DHT22;40085;53.004;6.770;2023-10-13T00:17:05;15.10;99.90
54178;DHT22;40085;53.004;6.770;2023-10-13T00:19:36;15.60;99.90
54178;DHT22;40085;53.004;6.770;2023-10-13T00:22:12;15.20;99.90
54178;DHT22;40085;53.004;6.770;2023-10-13T00:24:39;15.10;99.90
54178;DHT22;40085;53.004;6.770;2023-10-13T00:27:12;15.20;99.90
54178;DHT22;40085;53.004;6.770;2023-10-13T00:30:03;15.10;99.90
54178;DHT22;40085;53.004;6.770;2023-10-13T00:32:44;15.10;99.90
54178;DHT22;40085;53.004;6.770;2023-10-13T00:35:17;15.20;99.90
54178;DHT22;40085;53.004;6.770;2023-10-13T00:38:01;15.60;99.90
54178;DHT22;40085;53.004;6.770;2023-10-13T00:40:41;15.20;99.90
54178;DHT22;40085;53.004;6.770;2023-10-13T00:43:08;15.30;99.90
54178;DHT22;40085;53.004;6.770;2023-10-13T00:45:53;15.30;99.90
54178;DHT22;40085;53.004;6.770;2023-10-13T00:48:35;15.40;99.90
54178;DHT22;40085;53.004;6.770;2023-10-13T00:51:08;15.40;99.90
54178;DHT22;40085;53.004;6.770;2023-10-13T00:53:39;15.60;99.90
54178;DHT22;40085;53.004;6.770;2023-10-13T00:56:10;15.40;99.90
54178;DHT22;40085;53.004;6.770;2023-10-13T00:58:44;15.50;99.90
54178;DHT22;40085;53.004;6.770;2023-10-13T01:01:12;15.50;99.90
54178;DHT22;40085;53.004;6.770;2023-10-13T01:03:51;15.60;99.90
54178;DHT22;40085;53.004;6.770;2023-10-13T01:06:22;15.60;99.90
54178;DHT22;40085;53.004;6.770;2023-10-13T01:11:23;15.70;99.90
54178;DHT22;40085;53.004;6.770;2023-10-13T01:13:49;15.70;99.90
54178;DHT22;40085;53.004;6.770;2023-10-13T01:16:17;15.80;99.90
54178;DHT22;40085;53.004;6.770;2023-10-13T01:18:43;15.80;99.90
54178;DHT22;40085;53.004;6.770;2023-10-13T01:21:18;15.80;99.90
54178;DHT22;40085;53.004;6.770;2023-10-13T01:23:52;16.00;99.90
54178;DHT22;40085;53.004;6.770;2023-10-13T01:26:17;15.80;99.90
54178;DHT22;40085;53.004;6.770;2023-10-13T01:28:50;15.90;99.90
54178;DHT22;40085;53.004;6.770;2023-10-13T01:31:16;15.80;99.90
54178;DHT22;40085;53.004;6.770;2023-10-13T01:33:51;15.90;99.90
54178;DHT22;40085;53.004;6.770;2023-10-13T01:36:20;15.90;99.90
54178;DHT22;40085;53.004;6.770;2023-10-13T01:38:46;15.90;99.90
54178;DHT22;40085;53.004;6.770;2023-10-13T01:41:12;15.90;99.90
54178;DHT22;40085;53.004;6.770;2023-10-13T01:43:39;16.50;99.90
54178;DHT22;40085;53.004;6.770;2023-10-13T01:46:05;15.90;99.90
54178;DHT22;40085;53.004;6.770;2023-10-13T01:48:30;16.20;99.90
54178;DHT22;40085;53.004;6.770;2023-10-13T01:50:58;15.90;99.90
54178;DHT22;40085;53.004;6.770;2023-10-13T01:53:26;15.90;99.90
54178;DHT22;40085;53.004;6.770;2023-10-13T01:55:54;16.00;99.90
54178;DHT22;40085;53.004;6.770;2023-10-13T01:58:23;16.00;99.90
54178;DHT22;40085;53.004;6.770;2023-10-13T02:00:51;16.00;99.90
54178;DHT22;40085;53.004;6.770;2023-10-13T02:03:17;16.00;99.90
54178;DHT22;40085;53.004;6.770;2023-10-13T02:05:43;16.00;99.90
54178;DHT22;40085;53.004;6.770;2023-10-13T02:08:13;15.90;99.90
54178;DHT22;40085;53.004;6.770;2023-10-13T02:10:43;16.00;99.90
54178;DHT22;40085;53.004;6.770;2023-10-13T02:13:13;16.00;99.90
54178;DHT22;40085;53.004;6.770;2023-10-13T02:15:41;16.00;99.90
54178;DHT22;40085;53.004;6.770;2023-10-13T02:18:14;16.00;99.90
54178;DHT22;40085;53.004;6.770;2023-10-13T02:20:47;16.10;99.90
54178;DHT22;40085;53.004;6.770;2023-10-13T02:23:20;16.10;99.90
54178;DHT22;40085;53.004;6.770;2023-10-13T02:25:46;16.10;99.90
54178;DHT22;40085;53.004;6.770;2023-10-13T02:28:12;16.10;99.90
54178;DHT22;40085;53.004;6.770;2023-10-13T02:30:47;16.30;99.90
54178;DHT22;40085;53.004;6.770;2023-10-13T02:33:17;16.10;99.90
54178;DHT22;40085;53.004;6.770;2023-10-13T02:35:58;16.60;99.90
54178;DHT22;40085;53.004;6.770;2023-10-13T02:38:24;16.10;99.90
54178;DHT22;40085;53.004;6.770;2023-10-13T02:41:03;16.10;99.90
54178;DHT22;40085;53.004;6.770;2023-10-13T02:43:36;16.10;99.90
54178;DHT22;40085;53.004;6.770;2023-10-13T02:46:02;16.10;99.90
54178;DHT22;40085;53.004;6.770;2023-10-13T02:48:29;16.10;99.90
54178;DHT22;40085;53.004;6.770;2023-10-13T02:51:11;16.10;99.90
54178;DHT22;40085;53.004;6.770;2023-10-13T02:53:44;16.10;99.90
54178;DHT22;40085;53.004;6.770;2023-10-13T02:56:18;16.10;99.90
54178;DHT22;40085;53.004;6.770;2023-10-13T02:58:49;16.10;99.90
54178;DHT22;40085;53.004;6.770;2023-10-13T03:01:34;16.20;99.90
54178;DHT22;40085;53.004;6.770;2023-10-13T03:04:02;16.10;99.90
54178;DHT22;40085;53.004;6.770;2023-10-13T03:06:29;16.20;99.90
54178;DHT22;40085;53.004;6.770;2023-10-13T03:08:59;16.10;99.90
54178;DHT22;40085;53.004;6.770;2023-10-13T03:11:50;16.10;99.90
54178;DHT22;40085;53.004;6.770;2023-10-13T03:14:21;16.20;99.90
54178;DHT22;40085;53.004;6.770;2023-10-13T03:17:00;16.20;99.90
54178;DHT22;40085;53.004;6.770;2023-10-13T03:19:31;16.20;99.90
54178;DHT22;40085;53.004;6.770;2023-10-13T03:22:02;16.20;99.90
54178;DHT22;40085;53.004;6.770;2023-10-13T03:24:38;16.20;99.90
54178;DHT22;40085;53.004;6.770;2023-10-13T03:27:10;16.20;99.90
54178;DHT22;40085;53.004;6.770;2023-10-13T03:29:42;16.20;99.90
54178;DHT22;40085;53.004;6.770;2023-10-13T03:32:15;16.20;99.90
54178;DHT22;40085;53.004;6.770;2023-10-13T03:34:45;16.20;99.90
54178;DHT22;40085;53.004;6.770;2023-10-13T03:37:20;16.30;99.90
54178;DHT22;40085;53.004;6.770;2023-10-13T03:42:53;16.20;99.90
54178;DHT22;40085;53.004;6.770;2023-10-13T03:45:25;16.20;99.90
54178;DHT22;40085;53.004;6.770;2023-10-13T03:47:52;16.10;99.90
54178;DHT22;40085;53.004;6.770;2023-10-13T03:50:18;16.10;99.90
54178;DHT22;40085;53.004;6.770;2023-10-13T03:52:58;16.10;99.90
54178;DHT22;40085;53.004;6.770;2023-10-13T03:55:27;16.70;99.90
54178;DHT22;40085;53.004;6.770;2023-10-13T03:57:59;16.10;99.90
54178;DHT22;40085;53.004;6.770;2023-10-13T04:00:26;16.10;99.90
54178;DHT22;40085;53.004;6.770;2023-10-13T04:02:53;16.20;99.90
54178;DHT22;40085;53.004;6.770;2023-10-13T04:05:31;16.10;99.90
54178;DHT22;40085;53.004;6.770;2023-10-13T04:08:09;16.10;99.90
54178;DHT22;40085;53.004;6.770;2023-10-13T04:10:54;16.10;99.90
54178;DHT22;40085;53.004;6.770;2023-10-13T04:13:20;16.10;99.90
54178;DHT22;40085;53.004;6.770;2023-10-13T04:16:08;16.10;99.90
54178;DHT22;40085;53.004;6.770;2023-10-13T04:18:49;16.10;99.90
54178;DHT22;40085;53.004;6.770;2023-10-13T04:21:23;16.00;99.90
54178;DHT22;40085;53.004;6.770;2023-10-13T04:24:11;16.10;99.90
54178;DHT22;40085;53.004;6.770;2023-10-13T04:26:43;16.10;99.90
54178;DHT22;40085;53.004;6.770;2023-10-13T04:29:27;16.10;99.90
54178;DHT22;40085;53.004;6.770;2023-10-13T04:32:11;16.10;99.90
54178;DHT22;40085;53.004;6.770;2023-10-13T04:34:40;16.20;99.90
54178;DHT22;40085;53.004;6.770;2023-10-13T04:37:11;16.10;99.90
54178;DHT22;40085;53.004;6.770;2023-10-13T04:39:56;16.10;99.90
54178;DHT22;40085;53.004;6.770;2023-10-13T04:42:37;16.10;99.90
54178;DHT22;40085;53.004;6.770;2023-10-13T04:45:18;16.10;99.90
54178;DHT22;40085;53.004;6.770;2023-10-13T04:48:13;16.10;99.90
54178;DHT22;40085;53.004;6.770;2023-10-13T04:50:49;16.10;99.90
54178;DHT22;40085;53.004;6.770;2023-10-13T04:53:24;16.30;99.90
54178;DHT22;40085;53.004;6.770;2023-10-13T04:56:00;17.00;99.90
54178;DHT22;40085;53.004;6.770;2023-10-13T04:58:32;16.10;99.90
54178;DHT22;40085;53.004;6.770;2023-10-13T05:01:01;16.10;99.90
54178;DHT22;40085;53.004;6.770;2023-10-13T05:04:02;16.10;99.90
54178;DHT22;40085;53.004;6.770;2023-10-13T05:06:47;16.10;99.90
54178;DHT22;40085;53.004;6.770;2023-10-13T05:09:32;16.10;99.90
54178;DHT22;40085;53.004;6.770;2023-10-13T05:12:16;16.10;99.90
54178;DHT22;40085;53.004;6.770;2023-10-13T05:15:01;16.00;99.90
54178;DHT22;40085;53.004;6.770;2023-10-13T05:17:45;16.10;99.90
54178;DHT22;40085;53.004;6.770;2023-10-13T05:20:29;16.00;99.90
54178;DHT22;40085;53.004;6.770;2023-10-13T05:23:13;16.00;99.90
54178;DHT22;40085;53.004;6.770;2023-10-13T05:26:02;16.00;99.90
54178;DHT22;40085;53.004;6.770;2023-10-13T05:28:46;15.90;99.90
54178;DHT22;40085;53.004;6.770;2023-10-13T05:31:30;16.00;99.90
54178;DHT22;40085;53.004;6.770;2023-10-13T05:34:15;16.30;99.90
54178;DHT22;40085;53.004;6.770;2023-10-13T05:36:59;15.90;99.90
54178;DHT22;40085;53.004;6.770;2023-10-13T05:39:43;15.90;99.90
54178;DHT22;40085;53.004;6.770;2023-10-13T05:42:27;15.90;99.90
54178;DHT22;40085;53.004;6.770;2023-10-13T05:45:12;15.70;99.90
54178;DHT22;40085;53.004;6.770;2023-10-13T05:47:43;15.80;99.90
54178;DHT22;40085;53.004;6.770;2023-10-13T05:50:10;15.80;99.90
54178;DHT22;40085;53.004;6.770;2023-10-13T05:52:54;15.80;99.90
54178;DHT22;40085;53.004;6.770;2023-10-13T05:55:32;15.70;99.90
54178;DHT22;40085;53.004;6.770;2023-10-13T05:58:16;15.70;99.90
54178;DHT22;40085;53.004;6.770;2023-10-13T06:01:00;15.70;99.90
54178;DHT22;40085;53.004;6.770;2023-10-13T06:03:45;15.70;99.90
54178;DHT22;40085;53.004;6.770;2023-10-13T06:06:29;15.70;99.90
54178;DHT22;40085;53.004;6.770;2023-10-13T06:09:13;15.70;99.90
54178;DHT22;40085;53.004;6.770;2023-10-13T06:11:58;15.70;99.90
54178;DHT22;40085;53.004;6.770;2023-10-13T06:14:46;15.70;99.90
54178;DHT22;40085;53.004;6.770;2023-10-13T06:17:30;15.70;99.90
54178;DHT22;40085;53.004;6.770;2023-10-13T06:20:14;15.70;99.90
54178;DHT22;40085;53.004;6.770;2023-10-13T06:22:58;15.70;99.90
54178;DHT22;40085;53.004;6.770;2023-10-13T06:25:43;16.60;99.90
54178;DHT22;40085;53.004;6.770;2023-10-13T06:28:27;15.80;99.90
54178;DHT22;40085;53.004;6.770;2023-10-13T06:31:09;15.80;99.90
54178;DHT22;40085;53.004;6.770;2023-10-13T06:33:40;15.80;99.90
54178;DHT22;40085;53.004;6.770;2023-10-13T06:36:10;15.80;99.90
54178;DHT22;40085;53.004;6.770;2023-10-13T06:38:42;15.80;99.90
54178;DHT22;40085;53.004;6.770;2023-10-13T06:41:08;15.80;99.90
54178;DHT22;40085;53.004;6.770;2023-10-13T06:43:35;15.80;99.90
54178;DHT22;40085;53.004;6.770;2023-10-13T06:46:09;15.90;99.90
54178;DHT22;40085;53.004;6.770;2023-10-13T06:48:40;15.90;99.90
54178;DHT22;40085;53.004;6.770;2023-10-13T06:51:06;16.20;99.90
54178;DHT22;40085;53.004;6.770;2023-10-13T06:53:55;15.90;99.90
54178;DHT22;40085;53.004;6.770;2023-10-13T06:56:22;15.90;99.90
54178;DHT22;40085;53.004;6.770;2023-10-13T06:58:52;15.90;99.90
54178;DHT22;40085;53.004;6.770;2023-10-13T07:01:25;16.00;99.90
54178;DHT22;40085;53.004;6.770;2023-10-13T07:03:51;16.00;99.90
54178;DHT22;40085;53.004;6.770;2023-10-13T07:06:21;16.10;99.90
54178;DHT22;40085;53.004;6.770;2023-10-13T07:08:48;16.10;99.90
54178;DHT22;40085;53.004;6.770;2023-10-13T07:11:24;16.10;99.90
54178;DHT22;40085;53.004;6.770;2023-10-13T07:14:04;16.10;99.90
54178;DHT22;40085;53.004;6.770;2023-10-13T07:17:05;17.10;99.90
54178;DHT22;40085;53.004;6.770;2023-10-13T07:19:33;16.20;99.90
54178;DHT22;40085;53.004;6.770;2023-10-13T07:22:00;16.20;99.90
54178;DHT22;40085;53.004;6.770;2023-10-13T07:24:49;16.10;99.90
54178;DHT22;40085;53.004;6.770;2023-10-13T07:27:22;16.20;99.90
54178;DHT22;40085;53.004;6.770;2023-10-13T07:29:49;16.20;99.90
54178;DHT22;40085;53.004;6.770;2023-10-13T07:32:24;16.20;99.90
54178;DHT22;40085;53.004;6.770;2023-10-13T07:34:55;16.10;99.90
54178;DHT22;40085;53.004;6.770;2023-10-13T07:37:22;16.50;99.90
54178;DHT22;40085;53.004;6.770;2023-10-13T07:39:54;16.20;99.90
54178;DHT22;40085;53.004;6.770;2023-10-13T07:42:24;16.10;99.90
54178;DHT22;40085;53.004;6.770;2023-10-13T07:44:56;16.20;99.90
54178;DHT22;40085;53.004;6.770;2023-10-13T07:47:21;16.10;99.90
54178;DHT22;40085;53.004;6.770;2023-10-13T07:49:50;16.10;99.90
54178;DHT22;40085;53.004;6.770;2023-10-13T07:52:16;16.10;99.90
54178;DHT22;40085;53.004;6.770;2023-10-13T07:54:45;16.10;99.90
54178;DHT22;40085;53.004;6.770;2023-10-13T07:57:14;16.10;99.90
54178;DHT22;40085;53.004;6.770;2023-10-13T07:59:41;16.10;99.90
54178;DHT22;40085;53.004;6.770;2023-10-13T08:02:14;16.10;99.90
54178;DHT22;40085;53.004;6.770;2023-10-13T08:04:41;16.10;99.90
54178;DHT22;40085;53.004;6.770;2023-10-13T08:07:06;16.10;99.90
54178;DHT22;40085;53.004;6.770;2023-10-13T08:09:41;16.10;99.90
54178;DHT22;40085;53.004;6.770;2023-10-13T08:12:08;16.10;99.90
54178;DHT22;40085;53.004;6.770;2023-10-13T08:14:47;16.10;99.90
54178;DHT22;40085;53.004;6.770;2023-10-13T08:17:13;16.20;99.90
54178;DHT22;40085;53.004;6.770;2023-10-13T08:19:39;16.20;99.90
54178;DHT22;40085;53.004;6.770;2023-10-13T08:22:11;16.20;99.90
54178;DHT22;40085;53.004;6.770;2023-10-13T08:24:50;16.20;99.90
54178;DHT22;40085;53.004;6.770;2023-10-13T08:27:19;16.20;99.90
54178;DHT22;40085;53.004;6.770;2023-10-13T08:30:01;16.30;99.90
54178;DHT22;40085;53.004;6.770;2023-10-13T08:32:28;16.30;99.90
54178;DHT22;40085;53.004;6.770;2023-10-13T08:35:00;16.30;99.90
54178;DHT22;40085;53.004;6.770;2023-10-13T08:37:30;16.20;99.90
54178;DHT22;40085;53.004;6.770;2023-10-13T08:40:00;16.20;99.90
54178;DHT22;40085;53.004;6.770;2023-10-13T08:42:36;16.30;99.90
54178;DHT22;40085;53.004;6.770;2023-10-13T08:45:10;16.40;99.90
54178;DHT22;40085;53.004;6.770;2023-10-13T08:47:49;16.40;99.90
54178;DHT22;40085;53.004;6.770;2023-10-13T08:50:38;16.40;99.90
54178;DHT22;40085;53.004;6.770;2023-10-13T08:53:16;16.50;99.90
54178;DHT22;40085;53.004;6.770;2023-10-13T08:58:33;16.50;99.90
54178;DHT22;40085;53.004;6.770;2023-10-13T09:04:10;16.60;99.90
54178;DHT22;40085;53.004;6.770;2023-10-13T09:06:55;16.60;99.90
54178;DHT22;40085;53.004;6.770;2023-10-13T09:09:47;16.70;99.90
54178;DHT22;40085;53.004;6.770;2023-10-13T09:15:09;16.80;99.90
54178;DHT22;40085;53.004;6.770;2023-10-13T09:17:48;16.90;99.90
54178;DHT22;40085;53.004;6.770;2023-10-13T09:20:18;16.90;99.90
54178;DHT22;40085;53.004;6.770;2023-10-13T09:23:13;17.10;99.90
54178;DHT22;40085;53.004;6.770;2023-10-13T09:25:50;17.00;99.90
54178;DHT22;40085;53.004;6.770;2023-10-13T09:28:19;17.30;99.90
54178;DHT22;40085;53.004;6.770;2023-10-13T09:30:53;17.30;99.90
54178;DHT22;40085;53.004;6.770;2023-10-13T09:33:29;17.20;99.90
54178;DHT22;40085;53.004;6.770;2023-10-13T09:36:15;17.20;99.90
54178;DHT22;40085;53.004;6.770;2023-10-13T09:38:42;17.30;99.90
54178;DHT22;40085;53.004;6.770;2023-10-13T09:41:29;17.20;99.90
54178;DHT22;40085;53.004;6.770;2023-10-13T09:43:58;17.40;99.90
54178;DHT22;40085;53.004;6.770;2023-10-13T09:46:26;17.50;99.90
54178;DHT22;40085;53.004;6.770;2023-10-13T09:49:08;17.50;99.90
54178;DHT22;40085;53.004;6.770;2023-10-13T09:51:40;17.60;99.90
54178;DHT22;40085;53.004;6.770;2023-10-13T09:54:31;17.50;99.90
54178;DHT22;40085;53.004;6.770;2023-10-13T09:57:10;17.70;99.90
54178;DHT22;40085;53.004;6.770;2023-10-13T09:59:57;17.80;99.90
54178;DHT22;40085;53.004;6.770;2023-10-13T10:02:31;17.80;99.90
54178;DHT22;40085;53.004;6.770;2023-10-13T10:04:57;17.80;99.90
54178;DHT22;40085;53.004;6.770;2023-10-13T10:07:56;17.90;99.90
54178;DHT22;40085;53.004;6.770;2023-10-13T10:10:32;18.20;99.90
54178;DHT22;40085;53.004;6.770;2023-10-13T10:13:15;18.10;99.90
54178;DHT22;40085;53.004;6.770;2023-10-13T10:15:47;18.10;99.90
54178;DHT22;40085;53.004;6.770;2023-10-13T10:18:19;18.10;99.90
54178;DHT22;40085;53.004;6.770;2023-10-13T10:20:48;18.20;99.90
54178;DHT22;40085;53.004;6.770;2023-10-13T10:23:28;18.20;99.90
54178;DHT22;40085;53.004;6.770;2023-10-13T10:26:15;18.40;99.90
54178;DHT22;40085;53.004;6.770;2023-10-13T10:28:45;18.30;99.90
54178;DHT22;40085;53.004;6.770;2023-10-13T10:31:12;18.40;99.90
54178;DHT22;40085;53.004;6.770;2023-10-13T10:33:45;18.50;99.90
54178;DHT22;40085;53.004;6.770;2023-10-13T10:36:17;18.60;99.90
54178;DHT22;40085;53.004;6.770;2023-10-13T10:38:52;18.60;99.90
54178;DHT22;40085;53.004;6.770;2023-10-13T10:41:26;18.60;99.90
54178;DHT22;40085;53.004;6.770;2023-10-13T10:43:55;18.70;99.90
54178;DHT22;40085;53.004;6.770;2023-10-13T10:46:28;18.80;99.90
54178;DHT22;40085;53.004;6.770;2023-10-13T10:48:55;18.90;99.90
54178;DHT22;40085;53.004;6.770;2023-10-13T10:51:28;19.40;99.90
54178;DHT22;40085;53.004;6.770;2023-10-13T10:53:58;19.00;99.90
54178;DHT22;40085;53.004;6.770;2023-10-13T10:56:36;19.20;99.90
54178;DHT22;40085;53.004;6.770;2023-10-13T10:59:06;19.20;99.90
54178;DHT22;40085;53.004;6.770;2023-10-13T11:01:43;19.20;99.90
54178;DHT22;40085;53.004;6.770;2023-10-13T11:04:18;19.40;99.90
54178;DHT22;40085;53.004;6.770;2023-10-13T11:06:54;19.50;99.90
54178;DHT22;40085;53.004;6.770;2023-10-13T11:09:33;19.60;99.90
54178;DHT22;40085;53.004;6.770;2023-10-13T11:12:09;19.60;99.90
54178;DHT22;40085;53.004;6.770;2023-10-13T11:14:43;19.50;99.90
54178;DHT22;40085;53.004;6.770;2023-10-13T11:17:21;19.60;99.90
54178;DHT22;40085;53.004;6.770;2023-10-13T11:20:13;19.60;99.90
54178;DHT22;40085;53.004;6.770;2023-10-13T11:22:52;19.50;99.90
54178;DHT22;40085;53.004;6.770;2023-10-13T11:25:23;19.50;99.90
54178;DHT22;40085;53.004;6.770;2023-10-13T11:27:55;19.50;99.90
54178;DHT22;40085;53.004;6.770;2023-10-13T11:30:22;19.40;99.90
54178;DHT22;40085;53.004;6.770;2023-10-13T11:33:04;19.40;99.90
54178;DHT22;40085;53.004;6.770;2023-10-13T11:35:33;19.40;99.90
54178;DHT22;40085;53.004;6.770;2023-10-13T11:38:15;19.40;99.90
54178;DHT22;40085;53.004;6.770;2023-10-13T11:40:51;19.40;99.90
54178;DHT22;40085;53.004;6.770;2023-10-13T11:43:52;19.40;99.90
54178;DHT22;40085;53.004;6.770;2023-10-13T11:46:30;19.40;99.90
54178;DHT22;40085;53.004;6.770;2023-10-13T11:49:08;19.30;99.90
54178;DHT22;40085;53.004;6.770;2023-10-13T11:51:52;19.30;99.90
54178;DHT22;40085;53.004;6.770;2023-10-13T11:54:27;19.20;99.90
54178;DHT22;40085;53.004;6.770;2023-10-13T11:56:53;19.20;99.90
54178;DHT22;40085;53.004;6.770;2023-10-13T11:59:23;19.30;99.90
54178;DHT22;40085;53.004;6.770;2023-10-13T12:01:53;19.00;99.90
54178;DHT22;40085;53.004;6.770;2023-10-13T12:04:39;19.30;99.90
54178;DHT22;40085;53.004;6.770;2023-10-13T12:07:21;19.30;99.90
54178;DHT22;40085;53.004;6.770;2023-10-13T12:09:52;19.30;99.90
54178;DHT22;40085;53.004;6.770;2023-10-13T12:12:27;19.20;99.90
54178;DHT22;40085;53.004;6.770;2023-10-13T12:14:54;19.20;99.90
54178;DHT22;40085;53.004;6.770;2023-10-13T12:17:22;19.20;99.90
54178;DHT22;40085;53.004;6.770;2023-10-13T12:19:57;19.40;99.90
54178;DHT22;40085;53.004;6.770;2023-10-13T12:22:22;19.20;99.90
54178;DHT22;40085;53.004;6.770;2023-10-13T12:25:09;19.20;99.90
54178;DHT22;40085;53.004;6.770;2023-10-13T12:27:52;19.40;99.90
54178;DHT22;40085;53.004;6.770;2023-10-13T12:30:23;19.20;99.90
54178;DHT22;40085;53.004;6.770;2023-10-13T12:33:01;19.10;99.90
54178;DHT22;40085;53.004;6.770;2023-10-13T12:35:39;19.20;99.90
54178;DHT22;40085;53.004;6.770;2023-10-13T12:38:24;19.20;99.90
54178;DHT22;40085;53.004;6.770;2023-10-13T12:41:05;19.30;99.90
54178;DHT22;40085;53.004;6.770;2023-10-13T12:43:50;19.20;99.90
54178;DHT22;40085;53.004;6.770;2023-10-13T12:46:34;19.30;99.90
54178;DHT22;40085;53.004;6.770;2023-10-13T12:49:18;19.20;99.90
54178;DHT22;40085;53.004;6.770;2023-10-13T12:52:02;19.20;99.90
54178;DHT22;40085;53.004;6.770;2023-10-13T12:54:28;19.20;99.90
54178;DHT22;40085;53.004;6.770;2023-10-13T12:57:01;19.10;99.90
54178;DHT22;40085;53.004;6.770;2023-10-13T12:59:27;19.10;99.90
54178;DHT22;40085;53.004;6.770;2023-10-13T13:01:53;19.20;99.90
54178;DHT22;40085;53.004;6.770;2023-10-13T13:04:19;19.20;99.90
54178;DHT22;40085;53.004;6.770;2023-10-13T13:06:46;19.20;99.90
54178;DHT22;40085;53.004;6.770;2023-10-13T13:09:12;19.20;99.90
54178;DHT22;40085;53.004;6.770;2023-10-13T13:11:38;19.40;99.90
54178;DHT22;40085;53.004;6.770;2023-10-13T13:14:08;19.20;99.90
54178;DHT22;40085;53.004;6.770;2023-10-13T13:16:35;19.30;99.90
54178;DHT22;40085;53.004;6.770;2023-10-13T13:19:01;19.20;99.90
54178;DHT22;40085;53.004;6.770;2023-10-13T13:21:37;19.20;99.90
54178;DHT22;40085;53.004;6.770;2023-10-13T13:24:02;19.20;99.90
54178;DHT22;40085;53.004;6.770;2023-10-13T13:26:30;19.20;99.90
54178;DHT22;40085;53.004;6.770;2023-10-13T13:28:56;19.10;99.90
54178;DHT22;40085;53.004;6.770;2023-10-13T13:31:22;19.10;99.90
54178;DHT22;40085;53.004;6.770;2023-10-13T13:33:54;19.00;99.90
54178;DHT22;40085;53.004;6.770;2023-10-13T13:36:20;19.10;99.90
54178;DHT22;40085;53.004;6.770;2023-10-13T13:38:48;19.10;99.90
54178;DHT22;40085;53.004;6.770;2023-10-13T13:41:20;19.10;99.90
54178;DHT22;40085;53.004;6.770;2023-10-13T13:43:49;19.10;99.90
54178;DHT22;40085;53.004;6.770;2023-10-13T13:46:18;19.10;99.90
54178;DHT22;40085;53.004;6.770;2023-10-13T13:48:44;19.00;99.90
54178;DHT22;40085;53.004;6.770;2023-10-13T13:51:13;19.00;99.90
54178;DHT22;40085;53.004;6.770;2023-10-13T13:53:45;19.00;99.90
54178;DHT22;40085;53.004;6.770;2023-10-13T13:56:15;18.90;99.90
54178;DHT22;40085;53.004;6.770;2023-10-13T13:58:50;18.80;99.90
54178;DHT22;40085;53.004;6.770;2023-10-13T14:01:16;18.80;99.90
54178;DHT22;40085;53.004;6.770;2023-10-13T14:03:50;18.70;99.90
54178;DHT22;40085;53.004;6.770;2023-10-13T14:06:21;18.70;99.90
54178;DHT22;40085;53.004;6.770;2023-10-13T14:08:52;18.60;99.90
54178;DHT22;40085;53.004;6.770;2023-10-13T14:11:25;18.60;99.90
54178;DHT22;40085;53.004;6.770;2023-10-13T14:14:16;18.60;99.90
54178;DHT22;40085;53.004;6.770;2023-10-13T14:16:51;18.50;99.90
54178;DHT22;40085;53.004;6.770;2023-10-13T14:19:18;18.50;99.90
54178;DHT22;40085;53.004;6.770;2023-10-13T14:21:53;18.50;99.90
54178;DHT22;40085;53.004;6.770;2023-10-13T14:24:19;18.50;99.90
54178;DHT22;40085;53.004;6.770;2023-10-13T14:26:56;18.50;99.90
54178;DHT22;40085;53.004;6.770;2023-10-13T14:29:24;18.40;99.90
54178;DHT22;40085;53.004;6.770;2023-10-13T14:31:53;18.40;99.90
54178;DHT22;40085;53.004;6.770;2023-10-13T14:34:18;18.30;99.90
54178;DHT22;40085;53.004;6.770;2023-10-13T14:36:47;18.30;99.90
54178;DHT22;40085;53.004;6.770;2023-10-13T14:39:14;18.30;99.90
54178;DHT22;40085;53.004;6.770;2023-10-13T14:41:40;18.60;99.90
54178;DHT22;40085;53.004;6.770;2023-10-13T14:44:06;18.60;99.90
54178;DHT22;40085;53.004;6.770;2023-10-13T14:46:33;18.40;99.90
54178;DHT22;40085;53.004;6.770;2023-10-13T14:49:02;18.50;99.90
54178;DHT22;40085;53.004;6.770;2023-10-13T14:51:28;18.40;99.90
54178;DHT22;40085;53.004;6.770;2023-10-13T14:53:54;18.50;99.90
54178;DHT22;40085;53.004;6.770;2023-10-13T14:56:22;18.50;99.90
54178;DHT22;40085;53.004;6.770;2023-10-13T14:58:51;18.50;99.90
54178;DHT22;40085;53.004;6.770;2023-10-13T15:01:20;18.50;99.90
54178;DHT22;40085;53.004;6.770;2023-10-13T15:03:47;18.50;99.90
54178;DHT22;40085;53.004;6.770;2023-10-13T15:06:20;18.50;99.90
54178;DHT22;40085;53.004;6.770;2023-10-13T15:08:47;18.60;99.90
54178;DHT22;40085;53.004;6.770;2023-10-13T15:11:16;18.30;99.90
54178;DHT22;40085;53.004;6.770;2023-10-13T15:13:43;18.40;99.90
54178;DHT22;40085;53.004;6.770;2023-10-13T15:16:20;18.20;99.90
54178;DHT22;40085;53.004;6.770;2023-10-13T15:18:50;18.20;99.90
54178;DHT22;40085;53.004;6.770;2023-10-13T15:21:26;18.10;99.90
54178;DHT22;40085;53.004;6.770;2023-10-13T15:23:56;18.00;99.90
54178;DHT22;40085;53.004;6.770;2023-10-13T15:26:29;17.90;99.90
54178;DHT22;40085;53.004;6.770;2023-10-13T15:28:55;18.10;99.90
54178;DHT22;40085;53.004;6.770;2023-10-13T15:31:26;17.80;99.90
54178;DHT22;40085;53.004;6.770;2023-10-13T15:33:55;17.70;99.90
54178;DHT22;40085;53.004;6.770;2023-10-13T15:36:24;17.70;99.90
54178;DHT22;40085;53.004;6.770;2023-10-13T15:38:53;17.60;99.90
54178;DHT22;40085;53.004;6.770;2023-10-13T15:41:22;17.60;99.90
54178;DHT22;40085;53.004;6.770;2023-10-13T15:43:48;17.60;99.90
54178;DHT22;40085;53.004;6.770;2023-10-13T15:46:19;17.80;99.90
54178;DHT22;40085;53.004;6.770;2023-10-13T15:48:51;17.60;99.90
54178;DHT22;40085;53.004;6.770;2023-10-13T15:51:17;17.60;99.90
54178;DHT22;40085;53.004;6.770;2023-10-13T15:53:44;17.50;99.90
54178;DHT22;40085;53.004;6.770;2023-10-13T15:56:11;17.80;99.90
54178;DHT22;40085;53.004;6.770;2023-10-13T15:58:43;17.50;99.90
54178;DHT22;40085;53.004;6.770;2023-10-13T16:01:15;17.50;99.90
54178;DHT22;40085;53.004;6.770;2023-10-13T16:03:41;17.50;99.90
54178;DHT22;40085;53.004;6.770;2023-10-13T16:06:10;17.50;99.90
54178;DHT22;40085;53.004;6.770;2023-10-13T16:08:39;17.40;99.90
54178;DHT22;40085;53.004;6.770;2023-10-13T16:11:12;17.50;99.90
54178;DHT22;40085;53.004;6.770;2023-10-13T16:13:47;17.40;99.90
54178;DHT22;40085;53.004;6.770;2023-10-13T16:16:21;17.40;99.90
54178;DHT22;40085;53.004;6.770;2023-10-13T16:18:49;17.40;99.90
54178;DHT22;40085;53.004;6.770;2023-10-13T16:21:15;17.30;99.90
54178;DHT22;40085;53.004;6.770;2023-10-13T16:23:45;17.40;99.90
54178;DHT22;40085;53.004;6.770;2023-10-13T16:26:17;17.40;99.90